Flight Track Log - Related Links

Times and Time Zones

All times are in EDT time to prevent confusion due to time zone crossing. See the N960DL flight status page for this flight to view local times or setup timezone preferences in your user account.

Time Position Orientation Groundspeed Altitude Reporting Facility
EDT Latitude Longitude Course Direction KTS MPH feet Rate Location/Type
Sun 05:58:05 PM 33.6500 -84.4500 287° West 154 177 2,200  Level Atlanta TRACON
Sun 05:59:05 PM 33.6667 -84.5167 287° West 242 278 3,300 1,895 Climbing Atlanta TRACON
Sun 05:59:59 PM 33.7000 -84.5833 301° West 287 330 5,800 2,737 Climbing Atlanta TRACON
Sun 06:00:59 PM 33.7833 -84.5833 360° North 314 361 8,500 2,429 Climbing Atlanta TRACON
Sun 06:02:05 PM 33.8833 -84.5500 15° North 330 380 10,900 1,806 Climbing Atlanta TRACON
Sun 06:02:32 PM 33.9308 -84.5569 353° North 348 400 11,300 1,379 Climbing Atlanta Center
Sun 06:03:32 PM 34.0333 -84.5553 North 408 470 12,900 1,900 Climbing Atlanta Center
Sun 06:04:32 PM 34.1606 -84.5533 North 413 475 15,100 2,250 Climbing Atlanta Center
Sun 06:05:32 PM 34.2817 -84.5517 North 424 488 17,400 1,950 Climbing Atlanta Center
Sun 06:06:32 PM 34.4047 -84.5500 North 429 494 19,000 2,400 Climbing Atlanta Center
Sun 06:07:32 PM 34.5281 -84.5356 North 440 506 22,200 2,300 Climbing Atlanta Center
Sun 06:08:32 PM 34.6386 -84.4856 20° North 423 487 23,600 1,200 Climbing Atlanta Center
Sun 06:09:32 PM 34.7558 -84.4331 20° North 436 502 24,600 700 Climbing Atlanta Center
Sun 06:10:32 PM 34.8792 -84.3781 20° North 453 521 25,000 550 Climbing Atlanta Center
Sun 06:11:32 PM 35.0003 -84.3203 21° North 453 521 25,700 950 Climbing Atlanta Center
Sun 06:12:32 PM 35.1233 -84.2622 21° North 464 534 26,900 1,150 Climbing Atlanta Center
Sun 06:13:32 PM 35.2508 -84.2042 20° North 471 542 28,000 550 Climbing Atlanta Center
Sun 06:14:32 PM 35.3739 -84.1458 21° North 471 542 28,000 900 Level Atlanta Center
Sun 06:15:32 PM 35.4992 -84.0872 21° North 471 542 29,800 1,500 Climbing Atlanta Center
Sun 06:16:32 PM 35.6203 -84.0311 21° North 466 536 31,000 1,050 Climbing Atlanta Center
Sun 06:17:32 PM 35.7392 -83.9722 22° Northeast 466 536 31,900 850 Climbing Atlanta Center
Sun 06:18:32 PM 35.8581 -83.9183 20° North 455 524 32,700 550 Climbing Atlanta Center
Sun 06:19:32 PM 35.9747 -83.8514 25° Northeast 450 518 33,000 150 Climbing Atlanta Center
Sun 06:20:32 PM 36.0933 -83.7767 27° Northeast 457 526 33,000  Level Atlanta Center
Sun 06:21:15 PM 36.1619 -83.7322 28° Northeast 481 554 33,000  Level Indianapolis Center
Sun 06:22:17 PM 36.3039 -83.6439 27° Northeast 478 550 33,000  Level Indianapolis Center
Sun 06:23:19 PM 36.4203 -83.5672 28° Northeast 475 547 33,000  Level Indianapolis Center
Sun 06:24:20 PM 36.5297 -83.4972 27° Northeast 480 552 33,000  Level Indianapolis Center
Sun 06:25:22 PM 36.6711 -83.4094 26° Northeast 481 554 33,000  Level Indianapolis Center
Sun 06:26:24 PM 36.7936 -83.3339 26° Northeast 484 557 33,000  Level Indianapolis Center
Sun 06:27:26 PM 36.9161 -83.2583 26° Northeast 486 559 33,000  Level Indianapolis Center
Sun 06:28:28 PM 37.0383 -83.1808 27° Northeast 483 556 33,000  Level Indianapolis Center
Sun 06:29:29 PM 37.1608 -83.1003 28° Northeast 488 562 33,000  Level Indianapolis Center
Sun 06:30:31 PM 37.2831 -83.0175 28° Northeast 493 567 33,000  Level Indianapolis Center
Sun 06:31:33 PM 37.4039 -82.9356 28° Northeast 491 565 33,000  Level Indianapolis Center
Sun 06:32:35 PM 37.5222 -82.8547 28° Northeast 485 558 33,000  Level Indianapolis Center
Sun 06:33:37 PM 37.6631 -82.7703 25° Northeast 479 551 33,000  Level Indianapolis Center
Sun 06:34:38 PM 37.7925 -82.7322 13° North 476 548 33,000  Level Indianapolis Center
Sun 06:35:40 PM 37.9233 -82.6933 13° North 480 552 33,000  Level Indianapolis Center
Sun 06:36:42 PM 38.0542 -82.6564 13° North 479 551 33,000  Level Indianapolis Center
Sun 06:37:44 PM 38.1833 -82.6211 12° North 475 547 33,000  Level Indianapolis Center
Sun 06:38:46 PM 38.3156 -82.5822 13° North 483 556 33,000  Level Indianapolis Center
Sun 06:39:48 PM 38.4486 -82.5433 13° North 488 562 33,000  Level Indianapolis Center
Sun 06:40:49 PM 38.6047 -82.4967 13° North 491 565 33,000  Level Indianapolis Center
Sun 06:41:51 PM 38.7228 -82.4622 13° North 492 566 33,000  Level Indianapolis Center
Sun 06:42:53 PM 38.8567 -82.4231 13° North 488 562 33,000  Level Indianapolis Center
Sun 06:43:55 PM 38.9908 -82.3864 12° North 490 564 33,000  Level Indianapolis Center
Sun 06:44:57 PM 39.1539 -82.3761 North 487 560 33,000  Level Indianapolis Center
Sun 06:45:58 PM 39.2911 -82.3686 North 490 564 33,000  Level Indianapolis Center
Sun 06:47:00 PM 39.4281 -82.3589 North 490 564 33,000  Level Indianapolis Center
Sun 06:48:02 PM 39.5656 -82.3494 North 492 566 33,000  Level Indianapolis Center
Sun 06:49:04 PM 39.7003 -82.3444 North 486 559 33,000  Level Indianapolis Center
Sun 06:50:05 PM 39.8356 -82.3367 North 485 558 33,000  Level Indianapolis Center
Sun 06:51:07 PM 39.9703 -82.3308 North 483 556 33,000  Level Indianapolis Center
Sun 06:52:09 PM 40.1058 -82.3236 North 485 558 33,000  Level Indianapolis Center
Sun 06:53:11 PM 40.2450 -82.3167 North 484 557 33,000 -488 Level Indianapolis Center
Sun 06:54:12 PM 40.4033 -82.3083 North 484 557 32,000 -1,463 Descending Indianapolis Center
Sun 06:55:14 PM 40.5394 -82.3169 357° North 489 563 30,000 -968 Descending Indianapolis Center
Sun 06:56:16 PM 40.6700 -82.3547 348° North 477 549 30,000 -290 Level Indianapolis Center
Sun 06:57:18 PM 40.7997 -82.3933 347° North 472 543 29,400 -1,122 Descending Indianapolis Center
Sun 06:58:19 PM 40.9286 -82.4311 348° North 470 541 27,700 -1,659 Descending Indianapolis Center
Sun 06:59:21 PM 41.0589 -82.4686 348° North 472 543 26,000 -2,000 Descending Indianapolis Center
Sun 07:00:31 PM 41.2119 -82.5153 347° North 463 533 23,300 -909 Descending Cleveland Center
Sun 07:01:33 PM 41.3128 -82.5903 331° Northwest 427 491 24,000 -2,718 Climbing Cleveland Center
Sun 07:02:28 PM 41.3944 -82.6867 318° Northwest 414 476 18,000 -4,776 Descending Cleveland Center
Sun 07:03:11 PM 41.4536 -82.7553 319° Northwest 411 473 16,200 -2,571 Descending Cleveland Center
Sun 07:03:31 PM 41.4842 -82.7922 318° Northwest 415 478 15,300 -1,869 Descending Cleveland Center
Sun 07:04:12 PM 41.5372 -82.8522 320° Northwest 399 459 14,300 -1,800 Descending Cleveland Center
Sun 07:04:31 PM 41.5636 -82.8867 316° Northwest 399 459 13,500 -2,066 Descending Cleveland Center
Sun 07:05:13 PM 41.6228 -82.9525 320° Northwest 364 419 12,200 -1,700 Descending Cleveland Center
Sun 07:05:31 PM 41.6350 -82.9669 319° Northwest 381 438 11,800 -1,200 Descending Cleveland Center
Sun 07:06:13 PM 41.6961 -83.0386 319° Northwest 353 406 11,000 -800 Descending Cleveland Center
Sun 07:06:31 PM 41.7061 -83.0503 319° Northwest 360 414 11,000 -98 Level Cleveland Center
Sun 07:07:14 PM 41.7694 -83.1083 326° Northwest 310 357 10,900 -200 Descending Cleveland Center
Sun 07:07:31 PM 41.7800 -83.1117 347° North 336 387 10,800 -393 Descending Cleveland Center
Sun 07:08:15 PM 41.8328 -83.1722 319° Northwest 290 334 10,500 -600 Descending Cleveland Center
Sun 07:08:31 PM 41.8408 -83.1836 314° West 310 357 10,200 -1,082 Descending Cleveland Center
Sun 07:09:16 PM 41.8892 -83.2608 310° West 296 341 9,400 -900 Descending Cleveland Center
Sun 07:09:31 PM 41.8931 -83.2694 301° West 292 336 9,300 -1,770 Descending Cleveland Center
Sun 07:10:17 PM 41.9392 -83.3439 310° West 288 331 7,600 -2,411 Descending Cleveland Center
Sun 07:11:18 PM 41.9917 -83.4189 313° West 285 328 5,000 -2,066 Descending Cleveland Center
Sun 07:12:19 PM 42.0681 -83.4419 347° North 254 292 3,400 -1,328 Descending Cleveland Center
Sun 07:13:20 PM 42.1233 -83.4050 26° Northeast 197 227 2,300 -1,043 Descending Cleveland Center
Sun 07:14:14 PM 42.1594 -83.3786 28° Northeast 142 163 1,400 -1,000 Descending Cleveland Center
Sun 07:16:00 PM 42.2000 -83.3500 13° North  Level FlightAware Approximate
Sun 07:23:00 PM 42.2124 -83.3534 13° North  Level Estimated
Sun 07:24:00 PM 42.2124 -83.3534 13° North  Level Estimated

Login

Don't have an account? Register now (free) for customized features, flight alerts, and more!